sensor_id;sensor_type;location;lat;lon;timestamp;P1;durP1;ratioP1;P2;durP2;ratioP2
21505;SDS011;10914;48.886;9.394;2023-06-14T00:02:14;28.70;;;26.80;;
21505;SDS011;10914;48.886;9.394;2023-06-14T00:04:40;28.40;;;26.80;;
21505;SDS011;10914;48.886;9.394;2023-06-14T00:07:06;28.42;;;26.63;;
21505;SDS011;10914;48.886;9.394;2023-06-14T00:09:34;27.67;;;26.08;;
21505;SDS011;10914;48.886;9.394;2023-06-14T00:12:00;29.80;;;28.10;;
21505;SDS011;10914;48.886;9.394;2023-06-14T00:14:25;27.75;;;26.05;;
21505;SDS011;10914;48.886;9.394;2023-06-14T00:16:50;27.30;;;25.60;;
21505;SDS011;10914;48.886;9.394;2023-06-14T00:19:17;28.55;;;26.52;;
21505;SDS011;10914;48.886;9.394;2023-06-14T00:21:42;27.70;;;26.08;;
21505;SDS011;10914;48.886;9.394;2023-06-14T00:24:08;27.73;;;26.10;;
21505;SDS011;10914;48.886;9.394;2023-06-14T00:26:33;27.42;;;25.90;;
21505;SDS011;10914;48.886;9.394;2023-06-14T00:28:58;27.63;;;25.92;;
21505;SDS011;10914;48.886;9.394;2023-06-14T00:31:24;27.00;;;25.37;;
21505;SDS011;10914;48.886;9.394;2023-06-14T00:33:49;26.92;;;25.25;;
21505;SDS011;10914;48.886;9.394;2023-06-14T00:36:14;27.85;;;26.25;;
21505;SDS011;10914;48.886;9.394;2023-06-14T00:38:39;30.13;;;28.33;;
21505;SDS011;10914;48.886;9.394;2023-06-14T00:41:04;28.10;;;26.30;;
21505;SDS011;10914;48.886;9.394;2023-06-14T00:43:30;29.38;;;27.65;;
21505;SDS011;10914;48.886;9.394;2023-06-14T00:45:55;27.52;;;25.80;;
21505;SDS011;10914;48.886;9.394;2023-06-14T00:48:20;26.83;;;25.23;;
21505;SDS011;10914;48.886;9.394;2023-06-14T00:50:46;27.83;;;25.98;;
21505;SDS011;10914;48.886;9.394;2023-06-14T00:53:13;28.83;;;27.13;;
21505;SDS011;10914;48.886;9.394;2023-06-14T00:55:40;28.30;;;26.60;;
21505;SDS011;10914;48.886;9.394;2023-06-14T00:58:05;25.97;;;24.47;;
21505;SDS011;10914;48.886;9.394;2023-06-14T01:00:31;27.15;;;25.48;;
21505;SDS011;10914;48.886;9.394;2023-06-14T01:02:56;26.77;;;25.02;;
21505;SDS011;10914;48.886;9.394;2023-06-14T01:05:22;28.35;;;26.38;;
21505;SDS011;10914;48.886;9.394;2023-06-14T01:07:55;27.35;;;25.75;;
21505;SDS011;10914;48.886;9.394;2023-06-14T01:10:40;27.27;;;25.63;;
21505;SDS011;10914;48.886;9.394;2023-06-14T01:15:38;28.67;;;26.67;;
21505;SDS011;10914;48.886;9.394;2023-06-14T01:18:04;27.05;;;25.35;;
21505;SDS011;10914;48.886;9.394;2023-06-14T01:20:32;28.77;;;26.88;;
21505;SDS011;10914;48.886;9.394;2023-06-14T01:22:58;29.23;;;27.42;;
21505;SDS011;10914;48.886;9.394;2023-06-14T01:25:24;28.05;;;26.35;;
21505;SDS011;10914;48.886;9.394;2023-06-14T01:27:51;32.10;;;30.13;;
21505;SDS011;10914;48.886;9.394;2023-06-14T01:30:17;33.33;;;31.05;;
21505;SDS011;10914;48.886;9.394;2023-06-14T01:32:43;32.50;;;30.50;;
21505;SDS011;10914;48.886;9.394;2023-06-14T01:35:08;28.83;;;27.13;;
21505;SDS011;10914;48.886;9.394;2023-06-14T01:37:33;28.33;;;26.63;;
21505;SDS011;10914;48.886;9.394;2023-06-14T01:39:59;28.02;;;25.85;;
21505;SDS011;10914;48.886;9.394;2023-06-14T01:42:24;26.73;;;25.10;;
21505;SDS011;10914;48.886;9.394;2023-06-14T01:44:50;27.63;;;25.60;;
21505;SDS011;10914;48.886;9.394;2023-06-14T01:47:17;28.92;;;27.10;;
21505;SDS011;10914;48.886;9.394;2023-06-14T01:49:42;27.88;;;26.25;;
21505;SDS011;10914;48.886;9.394;2023-06-14T01:52:07;27.45;;;25.70;;
21505;SDS011;10914;48.886;9.394;2023-06-14T01:54:34;28.67;;;26.73;;
21505;SDS011;10914;48.886;9.394;2023-06-14T01:57:03;27.77;;;26.08;;
21505;SDS011;10914;48.886;9.394;2023-06-14T01:59:28;28.27;;;26.58;;
21505;SDS011;10914;48.886;9.394;2023-06-14T02:01:53;27.30;;;25.70;;
21505;SDS011;10914;48.886;9.394;2023-06-14T02:04:18;29.92;;;28.13;;
21505;SDS011;10914;48.886;9.394;2023-06-14T02:06:44;29.23;;;27.43;;
21505;SDS011;10914;48.886;9.394;2023-06-14T02:09:09;31.52;;;29.58;;
21505;SDS011;10914;48.886;9.394;2023-06-14T02:11:34;33.08;;;31.15;;
21505;SDS011;10914;48.886;9.394;2023-06-14T02:13:59;32.80;;;30.90;;
21505;SDS011;10914;48.886;9.394;2023-06-14T02:16:25;36.05;;;33.88;;
21505;SDS011;10914;48.886;9.394;2023-06-14T02:18:52;44.63;;;41.88;;
21505;SDS011;10914;48.886;9.394;2023-06-14T02:21:18;43.97;;;41.43;;
21505;SDS011;10914;48.886;9.394;2023-06-14T02:23:43;47.75;;;45.13;;
21505;SDS011;10914;48.886;9.394;2023-06-14T02:26:08;43.05;;;40.53;;
21505;SDS011;10914;48.886;9.394;2023-06-14T02:28:33;50.95;;;48.00;;
21505;SDS011;10914;48.886;9.394;2023-06-14T02:31:00;47.70;;;45.10;;
21505;SDS011;10914;48.886;9.394;2023-06-14T02:33:25;48.00;;;45.40;;
21505;SDS011;10914;48.886;9.394;2023-06-14T02:35:50;46.50;;;43.83;;
21505;SDS011;10914;48.886;9.394;2023-06-14T02:38:17;57.85;;;54.65;;
21505;SDS011;10914;48.886;9.394;2023-06-14T02:40:42;61.15;;;57.72;;
21505;SDS011;10914;48.886;9.394;2023-06-14T02:43:08;73.53;;;69.33;;
21505;SDS011;10914;48.886;9.394;2023-06-14T02:45:33;38.53;;;36.35;;
21505;SDS011;10914;48.886;9.394;2023-06-14T02:47:58;38.83;;;36.60;;
21505;SDS011;10914;48.886;9.394;2023-06-14T02:50:24;39.80;;;37.42;;
21505;SDS011;10914;48.886;9.394;2023-06-14T02:52:49;40.05;;;37.72;;
21505;SDS011;10914;48.886;9.394;2023-06-14T02:55:14;38.45;;;36.28;;
21505;SDS011;10914;48.886;9.394;2023-06-14T02:57:39;39.78;;;37.53;;
21505;SDS011;10914;48.886;9.394;2023-06-14T03:00:05;41.40;;;38.90;;
21505;SDS011;10914;48.886;9.394;2023-06-14T03:02:30;39.95;;;37.65;;
21505;SDS011;10914;48.886;9.394;2023-06-14T03:04:55;41.05;;;38.70;;
21505;SDS011;10914;48.886;9.394;2023-06-14T03:07:21;39.90;;;37.50;;
21505;SDS011;10914;48.886;9.394;2023-06-14T03:09:48;40.55;;;38.15;;
21505;SDS011;10914;48.886;9.394;2023-06-14T03:12:13;43.40;;;40.72;;
21505;SDS011;10914;48.886;9.394;2023-06-14T03:14:39;40.03;;;37.58;;
21505;SDS011;10914;48.886;9.394;2023-06-14T03:17:05;42.30;;;39.75;;
21505;SDS011;10914;48.886;9.394;2023-06-14T03:19:30;41.40;;;38.80;;
21505;SDS011;10914;48.886;9.394;2023-06-14T03:21:55;40.42;;;38.03;;
21505;SDS011;10914;48.886;9.394;2023-06-14T03:24:22;40.10;;;37.70;;
21505;SDS011;10914;48.886;9.394;2023-06-14T03:26:47;41.33;;;38.92;;
21505;SDS011;10914;48.886;9.394;2023-06-14T03:29:13;43.60;;;41.10;;
21505;SDS011;10914;48.886;9.394;2023-06-14T03:31:41;42.50;;;40.00;;
21505;SDS011;10914;48.886;9.394;2023-06-14T03:34:20;44.67;;;42.17;;
21505;SDS011;10914;48.886;9.394;2023-06-14T03:36:45;46.58;;;43.88;;
21505;SDS011;10914;48.886;9.394;2023-06-14T03:39:11;46.77;;;44.13;;
21505;SDS011;10914;48.886;9.394;2023-06-14T03:41:36;48.28;;;45.47;;
21505;SDS011;10914;48.886;9.394;2023-06-14T03:44:01;48.00;;;45.17;;
21505;SDS011;10914;48.886;9.394;2023-06-14T03:46:26;45.42;;;42.78;;
21505;SDS011;10914;48.886;9.394;2023-06-14T03:48:51;46.67;;;44.07;;
21505;SDS011;10914;48.886;9.394;2023-06-14T03:51:17;45.13;;;42.53;;
21505;SDS011;10914;48.886;9.394;2023-06-14T03:53:43;47.33;;;44.72;;
21505;SDS011;10914;48.886;9.394;2023-06-14T03:56:08;47.78;;;45.15;;
21505;SDS011;10914;48.886;9.394;2023-06-14T03:58:34;46.08;;;43.40;;
21505;SDS011;10914;48.886;9.394;2023-06-14T04:00:59;44.58;;;42.10;;
21505;SDS011;10914;48.886;9.394;2023-06-14T04:03:25;47.03;;;44.28;;
21505;SDS011;10914;48.886;9.394;2023-06-14T04:05:54;46.05;;;43.35;;
21505;SDS011;10914;48.886;9.394;2023-06-14T04:08:24;50.45;;;47.55;;
21505;SDS011;10914;48.886;9.394;2023-06-14T04:10:50;41.22;;;38.53;;
21505;SDS011;10914;48.886;9.394;2023-06-14T04:13:15;38.63;;;36.22;;
21505;SDS011;10914;48.886;9.394;2023-06-14T04:15:40;39.22;;;36.85;;
21505;SDS011;10914;48.886;9.394;2023-06-14T04:18:10;39.85;;;37.53;;
21505;SDS011;10914;48.886;9.394;2023-06-14T04:20:36;44.23;;;41.50;;
21505;SDS011;10914;48.886;9.394;2023-06-14T04:23:17;42.72;;;40.15;;
21505;SDS011;10914;48.886;9.394;2023-06-14T04:25:46;42.63;;;40.08;;
21505;SDS011;10914;48.886;9.394;2023-06-14T04:28:13;39.88;;;37.58;;
21505;SDS011;10914;48.886;9.394;2023-06-14T04:30:40;36.38;;;34.08;;
21505;SDS011;10914;48.886;9.394;2023-06-14T04:33:06;34.38;;;32.28;;
21505;SDS011;10914;48.886;9.394;2023-06-14T04:35:31;31.33;;;29.33;;
21505;SDS011;10914;48.886;9.394;2023-06-14T04:37:57;31.25;;;29.05;;
21505;SDS011;10914;48.886;9.394;2023-06-14T04:40:22;34.10;;;31.90;;
21505;SDS011;10914;48.886;9.394;2023-06-14T04:42:47;30.40;;;28.50;;
21505;SDS011;10914;48.886;9.394;2023-06-14T04:45:13;32.15;;;29.73;;
21505;SDS011;10914;48.886;9.394;2023-06-14T04:47:40;29.17;;;27.08;;
21505;SDS011;10914;48.886;9.394;2023-06-14T04:50:07;33.08;;;30.85;;
21505;SDS011;10914;48.886;9.394;2023-06-14T04:52:32;29.42;;;27.63;;
21505;SDS011;10914;48.886;9.394;2023-06-14T04:54:58;29.67;;;27.50;;
21505;SDS011;10914;48.886;9.394;2023-06-14T04:57:23;35.92;;;33.72;;
21505;SDS011;10914;48.886;9.394;2023-06-14T04:59:50;29.88;;;27.90;;
21505;SDS011;10914;48.886;9.394;2023-06-14T05:02:20;28.95;;;27.17;;
21505;SDS011;10914;48.886;9.394;2023-06-14T05:04:45;28.40;;;26.35;;
21505;SDS011;10914;48.886;9.394;2023-06-14T05:07:12;26.90;;;25.17;;
21505;SDS011;10914;48.886;9.394;2023-06-14T05:09:39;26.58;;;24.77;;
21505;SDS011;10914;48.886;9.394;2023-06-14T05:12:04;27.42;;;25.50;;
21505;SDS011;10914;48.886;9.394;2023-06-14T05:14:32;27.50;;;25.65;;
21505;SDS011;10914;48.886;9.394;2023-06-14T05:16:58;28.02;;;26.27;;
21505;SDS011;10914;48.886;9.394;2023-06-14T05:19:23;27.30;;;25.48;;
21505;SDS011;10914;48.886;9.394;2023-06-14T05:21:48;29.58;;;27.80;;
21505;SDS011;10914;48.886;9.394;2023-06-14T05:24:14;35.80;;;33.60;;
21505;SDS011;10914;48.886;9.394;2023-06-14T05:26:39;36.20;;;34.03;;
21505;SDS011;10914;48.886;9.394;2023-06-14T05:29:05;30.15;;;28.05;;
21505;SDS011;10914;48.886;9.394;2023-06-14T05:31:30;29.02;;;27.13;;
21505;SDS011;10914;48.886;9.394;2023-06-14T05:33:55;31.67;;;29.73;;
21505;SDS011;10914;48.886;9.394;2023-06-14T05:36:21;33.13;;;30.88;;
21505;SDS011;10914;48.886;9.394;2023-06-14T05:38:46;35.00;;;32.65;;
21505;SDS011;10914;48.886;9.394;2023-06-14T05:41:11;33.33;;;31.17;;
21505;SDS011;10914;48.886;9.394;2023-06-14T05:43:36;31.70;;;29.77;;
21505;SDS011;10914;48.886;9.394;2023-06-14T05:46:02;31.93;;;29.80;;
21505;SDS011;10914;48.886;9.394;2023-06-14T05:48:27;29.47;;;27.53;;
21505;SDS011;10914;48.886;9.394;2023-06-14T05:50:53;28.25;;;26.35;;
21505;SDS011;10914;48.886;9.394;2023-06-14T05:53:18;27.55;;;25.70;;
21505;SDS011;10914;48.886;9.394;2023-06-14T05:55:43;28.30;;;26.23;;
21505;SDS011;10914;48.886;9.394;2023-06-14T05:58:08;26.58;;;24.98;;
21505;SDS011;10914;48.886;9.394;2023-06-14T06:00:35;26.75;;;25.05;;
21505;SDS011;10914;48.886;9.394;2023-06-14T06:03:00;26.20;;;24.50;;
21505;SDS011;10914;48.886;9.394;2023-06-14T06:05:26;26.17;;;24.48;;
21505;SDS011;10914;48.886;9.394;2023-06-14T06:07:51;26.33;;;24.60;;
21505;SDS011;10914;48.886;9.394;2023-06-14T06:10:16;25.95;;;24.23;;
21505;SDS011;10914;48.886;9.394;2023-06-14T06:12:42;25.45;;;23.77;;
21505;SDS011;10914;48.886;9.394;2023-06-14T06:15:07;26.40;;;24.60;;
21505;SDS011;10914;48.886;9.394;2023-06-14T06:17:32;25.70;;;24.08;;
21505;SDS011;10914;48.886;9.394;2023-06-14T06:19:58;26.17;;;24.48;;
21505;SDS011;10914;48.886;9.394;2023-06-14T06:22:23;25.10;;;23.50;;
21505;SDS011;10914;48.886;9.394;2023-06-14T06:24:48;26.05;;;24.25;;
21505;SDS011;10914;48.886;9.394;2023-06-14T06:27:13;25.37;;;23.77;;
21505;SDS011;10914;48.886;9.394;2023-06-14T06:29:39;26.00;;;23.98;;
21505;SDS011;10914;48.886;9.394;2023-06-14T06:32:04;26.88;;;25.15;;
21505;SDS011;10914;48.886;9.394;2023-06-14T06:34:30;26.20;;;24.27;;
21505;SDS011;10914;48.886;9.394;2023-06-14T06:36:55;25.63;;;23.98;;
21505;SDS011;10914;48.886;9.394;2023-06-14T06:39:20;26.15;;;24.58;;
21505;SDS011;10914;48.886;9.394;2023-06-14T06:41:46;26.15;;;24.33;;
21505;SDS011;10914;48.886;9.394;2023-06-14T06:44:11;26.35;;;24.55;;
21505;SDS011;10914;48.886;9.394;2023-06-14T06:46:36;24.58;;;23.08;;
21505;SDS011;10914;48.886;9.394;2023-06-14T06:49:05;26.30;;;24.42;;
21505;SDS011;10914;48.886;9.394;2023-06-14T06:51:30;24.92;;;23.33;;
21505;SDS011;10914;48.886;9.394;2023-06-14T06:53:55;24.27;;;22.80;;
21505;SDS011;10914;48.886;9.394;2023-06-14T06:56:21;25.02;;;23.42;;
21505;SDS011;10914;48.886;9.394;2023-06-14T06:58:48;24.75;;;23.05;;
21505;SDS011;10914;48.886;9.394;2023-06-14T07:01:13;24.20;;;22.80;;
21505;SDS011;10914;48.886;9.394;2023-06-14T07:03:39;24.08;;;22.58;;
21505;SDS011;10914;48.886;9.394;2023-06-14T07:06:04;24.27;;;22.83;;
21505;SDS011;10914;48.886;9.394;2023-06-14T07:08:29;25.15;;;23.17;;
21505;SDS011;10914;48.886;9.394;2023-06-14T07:10:54;24.77;;;23.10;;
21505;SDS011;10914;48.886;9.394;2023-06-14T07:13:20;25.05;;;23.50;;
21505;SDS011;10914;48.886;9.394;2023-06-14T07:15:45;24.38;;;22.65;;
21505;SDS011;10914;48.886;9.394;2023-06-14T07:18:11;24.17;;;22.50;;
21505;SDS011;10914;48.886;9.394;2023-06-14T07:20:36;24.92;;;23.13;;
21505;SDS011;10914;48.886;9.394;2023-06-14T07:23:03;25.45;;;23.55;;
21505;SDS011;10914;48.886;9.394;2023-06-14T07:25:28;24.63;;;23.02;;
21505;SDS011;10914;48.886;9.394;2023-06-14T07:27:53;24.63;;;23.02;;
21505;SDS011;10914;48.886;9.394;2023-06-14T07:30:19;25.67;;;23.90;;
21505;SDS011;10914;48.886;9.394;2023-06-14T07:32:44;25.02;;;23.38;;
21505;SDS011;10914;48.886;9.394;2023-06-14T07:35:09;25.23;;;23.53;;
21505;SDS011;10914;48.886;9.394;2023-06-14T07:37:35;25.77;;;24.17;;
21505;SDS011;10914;48.886;9.394;2023-06-14T07:40:00;25.17;;;23.67;;
21505;SDS011;10914;48.886;9.394;2023-06-14T07:42:25;25.57;;;24.00;;
21505;SDS011;10914;48.886;9.394;2023-06-14T07:44:51;25.15;;;23.45;;
21505;SDS011;10914;48.886;9.394;2023-06-14T07:47:17;24.80;;;23.13;;
21505;SDS011;10914;48.886;9.394;2023-06-14T07:49:42;25.02;;;23.40;;
21505;SDS011;10914;48.886;9.394;2023-06-14T07:52:07;25.67;;;23.80;;
21505;SDS011;10914;48.886;9.394;2023-06-14T07:54:32;24.75;;;23.10;;
21505;SDS011;10914;48.886;9.394;2023-06-14T07:56:58;24.45;;;22.85;;
21505;SDS011;10914;48.886;9.394;2023-06-14T07:59:25;24.58;;;23.00;;
21505;SDS011;10914;48.886;9.394;2023-06-14T08:01:50;24.85;;;23.25;;
21505;SDS011;10914;48.886;9.394;2023-06-14T08:04:15;24.53;;;23.03;;
21505;SDS011;10914;48.886;9.394;2023-06-14T08:06:41;24.67;;;23.05;;
21505;SDS011;10914;48.886;9.394;2023-06-14T08:09:10;24.58;;;23.08;;
21505;SDS011;10914;48.886;9.394;2023-06-14T08:11:36;25.23;;;23.63;;
21505;SDS011;10914;48.886;9.394;2023-06-14T08:14:01;25.40;;;23.70;;
21505;SDS011;10914;48.886;9.394;2023-06-14T08:16:26;25.50;;;23.53;;
21505;SDS011;10914;48.886;9.394;2023-06-14T08:18:51;24.23;;;22.67;;
21505;SDS011;10914;48.886;9.394;2023-06-14T08:21:17;25.63;;;23.88;;
21505;SDS011;10914;48.886;9.394;2023-06-14T08:23:42;25.60;;;23.95;;
21505;SDS011;10914;48.886;9.394;2023-06-14T08:26:08;24.83;;;23.23;;
21505;SDS011;10914;48.886;9.394;2023-06-14T08:28:33;24.45;;;22.88;;
21505;SDS011;10914;48.886;9.394;2023-06-14T08:30:59;25.27;;;23.77;;
21505;SDS011;10914;48.886;9.394;2023-06-14T08:33:24;25.33;;;23.50;;
21505;SDS011;10914;48.886;9.394;2023-06-14T08:35:49;25.27;;;23.63;;
21505;SDS011;10914;48.886;9.394;2023-06-14T08:38:14;26.90;;;24.85;;
21505;SDS011;10914;48.886;9.394;2023-06-14T08:40:41;25.52;;;23.63;;
21505;SDS011;10914;48.886;9.394;2023-06-14T08:43:06;25.15;;;23.55;;
21505;SDS011;10914;48.886;9.394;2023-06-14T08:45:32;26.70;;;24.55;;
21505;SDS011;10914;48.886;9.394;2023-06-14T08:47:57;25.15;;;23.63;;
21505;SDS011;10914;48.886;9.394;2023-06-14T08:50:25;25.48;;;23.80;;
21505;SDS011;10914;48.886;9.394;2023-06-14T08:53:00;25.67;;;23.63;;
21505;SDS011;10914;48.886;9.394;2023-06-14T08:55:27;25.75;;;24.08;;
21505;SDS011;10914;48.886;9.394;2023-06-14T08:57:56;22.58;;;21.17;;
21505;SDS011;10914;48.886;9.394;2023-06-14T09:00:23;23.50;;;21.95;;
21505;SDS011;10914;48.886;9.394;2023-06-14T09:02:49;22.85;;;21.45;;
21505;SDS011;10914;48.886;9.394;2023-06-14T09:05:15;24.35;;;22.88;;
21505;SDS011;10914;48.886;9.394;2023-06-14T09:07:43;22.25;;;20.85;;
21505;SDS011;10914;48.886;9.394;2023-06-14T09:10:09;26.35;;;24.67;;
21505;SDS011;10914;48.886;9.394;2023-06-14T09:12:35;25.45;;;23.73;;
21505;SDS011;10914;48.886;9.394;2023-06-14T09:15:01;25.58;;;24.02;;
21505;SDS011;10914;48.886;9.394;2023-06-14T09:17:31;23.33;;;21.88;;
21505;SDS011;10914;48.886;9.394;2023-06-14T09:19:58;25.50;;;23.65;;
21505;SDS011;10914;48.886;9.394;2023-06-14T09:22:23;25.42;;;23.83;;
21505;SDS011;10914;48.886;9.394;2023-06-14T09:24:48;24.03;;;22.43;;
21505;SDS011;10914;48.886;9.394;2023-06-14T09:27:16;24.63;;;23.13;;
21505;SDS011;10914;48.886;9.394;2023-06-14T09:29:41;24.05;;;22.45;;
21505;SDS011;10914;48.886;9.394;2023-06-14T09:32:07;23.43;;;21.87;;
21505;SDS011;10914;48.886;9.394;2023-06-14T09:34:32;22.73;;;21.27;;
21505;SDS011;10914;48.886;9.394;2023-06-14T09:36:58;23.15;;;21.67;;
21505;SDS011;10914;48.886;9.394;2023-06-14T09:39:23;22.93;;;21.43;;
21505;SDS011;10914;48.886;9.394;2023-06-14T09:41:50;21.25;;;20.05;;
21505;SDS011;10914;48.886;9.394;2023-06-14T09:44:15;21.90;;;20.60;;
21505;SDS011;10914;48.886;9.394;2023-06-14T09:46:40;21.63;;;20.33;;
21505;SDS011;10914;48.886;9.394;2023-06-14T09:49:07;22.70;;;21.10;;
21505;SDS011;10914;48.886;9.394;2023-06-14T09:51:32;22.30;;;20.40;;
21505;SDS011;10914;48.886;9.394;2023-06-14T09:53:59;22.30;;;20.63;;
21505;SDS011;10914;48.886;9.394;2023-06-14T09:58:52;21.53;;;20.03;;
21505;SDS011;10914;48.886;9.394;2023-06-14T10:01:19;22.20;;;20.52;;
21505;SDS011;10914;48.886;9.394;2023-06-14T10:03:45;21.23;;;19.90;;
21505;SDS011;10914;48.886;9.394;2023-06-14T10:06:11;21.00;;;19.75;;
21505;SDS011;10914;48.886;9.394;2023-06-14T10:08:37;21.10;;;19.67;;
21505;SDS011;10914;48.886;9.394;2023-06-14T10:11:02;21.00;;;19.70;;
21505;SDS011;10914;48.886;9.394;2023-06-14T10:13:28;21.70;;;20.30;;
21505;SDS011;10914;48.886;9.394;2023-06-14T10:15:58;20.65;;;19.35;;
21505;SDS011;10914;48.886;9.394;2023-06-14T10:18:38;21.15;;;19.67;;
21505;SDS011;10914;48.886;9.394;2023-06-14T10:23:41;21.30;;;19.65;;
21505;SDS011;10914;48.886;9.394;2023-06-14T10:26:07;20.98;;;19.67;;
21505;SDS011;10914;48.886;9.394;2023-06-14T10:28:32;20.90;;;19.63;;
21505;SDS011;10914;48.886;9.394;2023-06-14T10:33:28;22.02;;;20.45;;
21505;SDS011;10914;48.886;9.394;2023-06-14T10:36:10;21.03;;;19.80;;
21505;SDS011;10914;48.886;9.394;2023-06-14T10:38:36;21.27;;;19.77;;
21505;SDS011;10914;48.886;9.394;2023-06-14T10:41:01;20.40;;;19.17;;
21505;SDS011;10914;48.886;9.394;2023-06-14T10:43:26;20.77;;;19.48;;
21505;SDS011;10914;48.886;9.394;2023-06-14T10:48:40;21.08;;;19.83;;
21505;SDS011;10914;48.886;9.394;2023-06-14T10:51:05;20.63;;;19.42;;
21505;SDS011;10914;48.886;9.394;2023-06-14T10:53:39;21.13;;;19.63;;
21505;SDS011;10914;48.886;9.394;2023-06-14T10:56:07;21.42;;;19.95;;
21505;SDS011;10914;48.886;9.394;2023-06-14T10:58:33;20.75;;;19.50;;
21505;SDS011;10914;48.886;9.394;2023-06-14T11:00:58;20.87;;;19.57;;
21505;SDS011;10914;48.886;9.394;2023-06-14T11:05:55;20.77;;;19.45;;
21505;SDS011;10914;48.886;9.394;2023-06-14T11:11:05;20.35;;;19.15;;
21505;SDS011;10914;48.886;9.394;2023-06-14T11:13:31;20.85;;;19.42;;
21505;SDS011;10914;48.886;9.394;2023-06-14T11:15:57;20.27;;;19.02;;
21505;SDS011;10914;48.886;9.394;2023-06-14T11:18:23;19.98;;;18.83;;
21505;SDS011;10914;48.886;9.394;2023-06-14T11:20:52;19.52;;;18.20;;
21505;SDS011;10914;48.886;9.394;2023-06-14T11:23:17;20.00;;;18.80;;
21505;SDS011;10914;48.886;9.394;2023-06-14T11:25:43;19.77;;;18.57;;
21505;SDS011;10914;48.886;9.394;2023-06-14T11:28:08;19.73;;;18.53;;
21505;SDS011;10914;48.886;9.394;2023-06-14T11:30:33;18.93;;;17.83;;
21505;SDS011;10914;48.886;9.394;2023-06-14T11:32:58;19.80;;;18.50;;
21505;SDS011;10914;48.886;9.394;2023-06-14T11:35:24;18.75;;;17.55;;
21505;SDS011;10914;48.886;9.394;2023-06-14T11:37:56;19.55;;;18.38;;
21505;SDS011;10914;48.886;9.394;2023-06-14T11:40:23;19.33;;;18.13;;
21505;SDS011;10914;48.886;9.394;2023-06-14T11:42:48;19.52;;;18.20;;
21505;SDS011;10914;48.886;9.394;2023-06-14T11:45:14;20.20;;;18.90;;
21505;SDS011;10914;48.886;9.394;2023-06-14T11:47:39;19.40;;;18.27;;
21505;SDS011;10914;48.886;9.394;2023-06-14T11:50:06;18.95;;;17.77;;
21505;SDS011;10914;48.886;9.394;2023-06-14T11:52:33;19.13;;;17.83;;
21505;SDS011;10914;48.886;9.394;2023-06-14T11:54:58;20.20;;;18.50;;
21505;SDS011;10914;48.886;9.394;2023-06-14T11:57:24;19.80;;;18.50;;
21505;SDS011;10914;48.886;9.394;2023-06-14T11:59:50;19.05;;;17.95;;
21505;SDS011;10914;48.886;9.394;2023-06-14T12:02:16;19.42;;;18.27;;
21505;SDS011;10914;48.886;9.394;2023-06-14T12:04:42;19.40;;;17.95;;
21505;SDS011;10914;48.886;9.394;2023-06-14T12:07:10;20.67;;;18.92;;
21505;SDS011;10914;48.886;9.394;2023-06-14T12:12:22;19.05;;;17.85;;
21505;SDS011;10914;48.886;9.394;2023-06-14T12:14:50;18.13;;;16.90;;
21505;SDS011;10914;48.886;9.394;2023-06-14T12:17:16;18.73;;;17.42;;
21505;SDS011;10914;48.886;9.394;2023-06-14T12:19:42;18.58;;;17.48;;
21505;SDS011;10914;48.886;9.394;2023-06-14T12:22:14;17.77;;;16.40;;
21505;SDS011;10914;48.886;9.394;2023-06-14T12:24:43;17.38;;;16.38;;
21505;SDS011;10914;48.886;9.394;2023-06-14T12:27:08;17.70;;;16.60;;
21505;SDS011;10914;48.886;9.394;2023-06-14T12:29:33;18.10;;;17.00;;
21505;SDS011;10914;48.886;9.394;2023-06-14T12:31:58;17.47;;;16.47;;
21505;SDS011;10914;48.886;9.394;2023-06-14T12:34:24;17.70;;;16.60;;
21505;SDS011;10914;48.886;9.394;2023-06-14T12:36:52;17.42;;;16.23;;
21505;SDS011;10914;48.886;9.394;2023-06-14T12:39:18;18.25;;;17.05;;
21505;SDS011;10914;48.886;9.394;2023-06-14T12:41:43;18.30;;;17.20;;
21505;SDS011;10914;48.886;9.394;2023-06-14T12:44:09;18.13;;;17.03;;
21505;SDS011;10914;48.886;9.394;2023-06-14T12:46:34;18.27;;;17.17;;
21505;SDS011;10914;48.886;9.394;2023-06-14T12:49:00;19.43;;;18.30;;
21505;SDS011;10914;48.886;9.394;2023-06-14T12:51:25;19.20;;;18.05;;
21505;SDS011;10914;48.886;9.394;2023-06-14T12:53:50;18.70;;;17.42;;
21505;SDS011;10914;48.886;9.394;2023-06-14T12:56:16;19.15;;;18.05;;
21505;SDS011;10914;48.886;9.394;2023-06-14T12:58:41;19.93;;;18.73;;
21505;SDS011;10914;48.886;9.394;2023-06-14T13:01:07;20.50;;;18.95;;
21505;SDS011;10914;48.886;9.394;2023-06-14T13:03:32;20.50;;;19.05;;
21505;SDS011;10914;48.886;9.394;2023-06-14T13:05:58;20.20;;;18.90;;
21505;SDS011;10914;48.886;9.394;2023-06-14T13:08:23;20.33;;;18.93;;
21505;SDS011;10914;48.886;9.394;2023-06-14T13:10:49;19.25;;;18.05;;
21505;SDS011;10914;48.886;9.394;2023-06-14T13:13:14;20.48;;;19.23;;
21505;SDS011;10914;48.886;9.394;2023-06-14T13:15:39;20.33;;;19.00;;
21505;SDS011;10914;48.886;9.394;2023-06-14T13:18:05;19.80;;;18.67;;
21505;SDS011;10914;48.886;9.394;2023-06-14T13:20:31;18.35;;;17.15;;
21505;SDS011;10914;48.886;9.394;2023-06-14T13:22:56;18.20;;;17.00;;
21505;SDS011;10914;48.886;9.394;2023-06-14T13:25:21;18.60;;;17.17;;
21505;SDS011;10914;48.886;9.394;2023-06-14T13:27:47;19.08;;;17.58;;
21505;SDS011;10914;48.886;9.394;2023-06-14T13:30:12;18.33;;;17.17;;
21505;SDS011;10914;48.886;9.394;2023-06-14T13:32:38;17.58;;;16.45;;
21505;SDS011;10914;48.886;9.394;2023-06-14T13:35:03;17.10;;;16.03;;
21505;SDS011;10914;48.886;9.394;2023-06-14T13:37:29;18.20;;;17.00;;
21505;SDS011;10914;48.886;9.394;2023-06-14T13:39:54;17.30;;;16.20;;
21505;SDS011;10914;48.886;9.394;2023-06-14T13:42:20;17.13;;;15.88;;
21505;SDS011;10914;48.886;9.394;2023-06-14T13:44:45;17.47;;;16.37;;
21505;SDS011;10914;48.886;9.394;2023-06-14T13:47:10;18.37;;;16.80;;
21505;SDS011;10914;48.886;9.394;2023-06-14T13:49:35;18.07;;;16.80;;
21505;SDS011;10914;48.886;9.394;2023-06-14T13:52:01;18.35;;;17.35;;
21505;SDS011;10914;48.886;9.394;2023-06-14T13:54:27;19.27;;;17.77;;
21505;SDS011;10914;48.886;9.394;2023-06-14T13:56:53;19.38;;;18.08;;
21505;SDS011;10914;48.886;9.394;2023-06-14T13:59:18;19.25;;;17.85;;
21505;SDS011;10914;48.886;9.394;2023-06-14T14:01:43;19.20;;;17.90;;
21505;SDS011;10914;48.886;9.394;2023-06-14T14:04:09;18.03;;;16.90;;
21505;SDS011;10914;48.886;9.394;2023-06-14T14:06:34;18.10;;;16.98;;
21505;SDS011;10914;48.886;9.394;2023-06-14T14:09:00;18.67;;;17.33;;
21505;SDS011;10914;48.886;9.394;2023-06-14T14:11:25;18.55;;;17.38;;
21505;SDS011;10914;48.886;9.394;2023-06-14T14:13:51;17.95;;;16.85;;
21505;SDS011;10914;48.886;9.394;2023-06-14T14:16:16;18.02;;;16.85;;
21505;SDS011;10914;48.886;9.394;2023-06-14T14:18:41;16.93;;;16.03;;
21505;SDS011;10914;48.886;9.394;2023-06-14T14:21:06;17.95;;;16.63;;
21505;SDS011;10914;48.886;9.394;2023-06-14T14:23:32;17.30;;;16.27;;
21505;SDS011;10914;48.886;9.394;2023-06-14T14:25:57;17.00;;;15.93;;
21505;SDS011;10914;48.886;9.394;2023-06-14T14:28:23;16.50;;;15.50;;
21505;SDS011;10914;48.886;9.394;2023-06-14T14:30:48;17.48;;;16.50;;
21505;SDS011;10914;48.886;9.394;2023-06-14T14:33:13;17.67;;;16.47;;
21505;SDS011;10914;48.886;9.394;2023-06-14T14:35:44;17.70;;;16.58;;